createdAt,value
2022-11-07T00:03:35.274Z,22.30
2022-11-07T00:13:39.595Z,22.40
2022-11-07T00:23:41.977Z,21.33
2022-11-07T00:33:44.621Z,23.80
2022-11-07T00:43:46.840Z,20.97
2022-11-07T00:53:49.186Z,23.73
2022-11-07T01:04:09.775Z,23.73
2022-11-07T01:14:16.354Z,24.23
2022-11-07T01:24:18.971Z,25.73
2022-11-07T01:34:23.978Z,27.97
2022-11-07T01:44:28.505Z,26.57
2022-11-07T01:54:45.306Z,25.03
2022-11-07T02:04:47.374Z,26.93
2022-11-07T02:14:52.538Z,28.93
2022-11-07T02:24:58.111Z,28.13
2022-11-07T02:35:08.149Z,24.00
2022-11-07T02:45:18.695Z,25.43
2022-11-07T02:55:20.855Z,25.27
2022-11-07T03:05:22.867Z,27.80
2022-11-07T03:15:29.647Z,24.93
2022-11-07T03:25:31.725Z,30.47
2022-11-07T03:35:38.215Z,28.30
2022-11-07T03:45:45.360Z,29.00
2022-11-07T03:55:48.022Z,30.07
2022-11-07T04:05:53.358Z,31.33
2022-11-07T04:16:17.573Z,31.87
2022-11-07T04:26:41.090Z,26.80
2022-11-07T04:36:43.023Z,33.10
2022-11-07T04:46:47.292Z,34.27
2022-11-07T04:56:49.238Z,37.80
2022-11-07T05:06:51.192Z,34.63
2022-11-07T05:16:54.560Z,36.73
2022-11-07T05:27:01.222Z,36.30
2022-11-07T05:37:05.421Z,38.90
2022-11-07T05:47:07.430Z,35.53
2022-11-07T05:57:11.543Z,34.63
2022-11-07T06:07:16.143Z,35.37
2022-11-07T06:17:20.570Z,29.83
2022-11-07T06:27:25.154Z,31.27
2022-11-07T06:37:30.375Z,25.53
2022-11-07T06:47:34.733Z,25.37
2022-11-07T06:57:41.641Z,26.47
2022-11-07T07:07:48.709Z,23.20
2022-11-07T07:17:53.793Z,21.17
2022-11-07T07:28:00.979Z,20.43
2022-11-07T07:38:09.693Z,25.23
2022-11-07T07:48:12.724Z,19.03
2022-11-07T07:58:14.923Z,20.07
2022-11-07T08:08:19.422Z,17.30
2022-11-07T08:18:25.079Z,18.40
2022-11-07T08:28:29.583Z,17.17
2022-11-07T08:38:37.890Z,16.43
2022-11-07T08:48:48.702Z,16.50
2022-11-07T08:58:53.035Z,16.83
2022-11-07T09:09:03.109Z,16.37
2022-11-07T09:19:05.217Z,14.47
2022-11-07T09:29:10.797Z,13.47
2022-11-07T09:39:14.148Z,12.27
2022-11-07T09:49:26.328Z,12.95
2022-11-07T09:59:38.787Z,13.20
2022-11-07T10:09:52.220Z,12.98
2022-11-07T10:20:11.308Z,12.73
2022-11-07T10:30:21.283Z,10.90
2022-11-07T10:40:38.632Z,9.82
2022-11-07T10:50:40.660Z,10.88
2022-11-07T11:01:02.403Z,8.63
2022-11-07T11:11:17.927Z,8.50
2022-11-07T11:21:22.411Z,8.38
2022-11-07T11:31:48.309Z,7.45
2022-11-07T11:41:59.191Z,8.13
2022-11-07T11:52:09.220Z,8.13
2022-11-07T12:02:38.795Z,8.25
2022-11-07T12:12:58.091Z,7.10
2022-11-07T12:23:32.970Z,7.22
2022-11-07T12:34:06.747Z,7.43
2022-11-07T12:44:17.175Z,6.50
2022-11-07T12:54:34.318Z,7.07
2022-11-07T13:04:45.924Z,6.22
2022-11-07T13:14:50.311Z,5.57
2022-11-07T13:25:11.827Z,6.00
2022-11-07T13:35:34.285Z,6.30
2022-11-07T13:45:50.584Z,6.47
2022-11-07T13:56:28.367Z,6.75
2022-11-07T14:06:32.105Z,5.97
2022-11-07T14:16:35.118Z,8.10
2022-11-07T14:26:42.752Z,7.38
2022-11-07T14:36:57.807Z,8.10
2022-11-07T14:47:08.569Z,6.28
2022-11-07T14:57:14.305Z,6.65
2022-11-07T15:07:28.248Z,6.20
2022-11-07T15:17:30.498Z,6.72
2022-11-07T15:27:39.571Z,6.53
2022-11-07T15:37:41.585Z,6.00
2022-11-07T15:47:48.491Z,5.93
2022-11-07T15:57:56.450Z,6.85
2022-11-07T16:07:58.968Z,6.45
2022-11-07T16:18:05.711Z,7.50
2022-11-07T16:28:27.259Z,6.80
2022-11-07T16:38:35.608Z,7.97
2022-11-07T16:48:38.043Z,8.43
2022-11-07T16:58:42.436Z,7.53
2022-11-07T17:08:47.140Z,8.13
2022-11-07T17:18:49.791Z,8.30
2022-11-07T17:28:57.157Z,8.48
2022-11-07T17:39:11.215Z,11.73
2022-11-07T17:49:17.893Z,9.63
2022-11-07T17:59:27.906Z,11.07
2022-11-07T18:09:29.925Z,10.13
2022-11-07T18:19:34.425Z,8.73
2022-11-07T18:29:42.079Z,9.47
2022-11-07T18:39:44.143Z,9.40
2022-11-07T18:49:54.177Z,9.27
2022-11-07T19:00:00.967Z,8.70
2022-11-07T19:10:03.728Z,11.13
2022-11-07T19:20:06.363Z,8.43
2022-11-07T19:30:16.533Z,7.60
2022-11-07T19:40:20.834Z,7.53
2022-11-07T19:50:23.922Z,8.70
2022-11-07T20:00:30.835Z,7.97
2022-11-07T20:10:38.293Z,7.87
2022-11-07T20:20:42.644Z,8.43
2022-11-07T20:30:49.369Z,7.40
2022-11-07T20:40:53.934Z,7.90
2022-11-07T20:50:55.890Z,8.63
2022-11-07T21:00:58.082Z,9.07
2022-11-07T21:11:02.373Z,10.40
2022-11-07T21:21:33.963Z,9.93
2022-11-07T21:31:40.371Z,10.13
2022-11-07T21:41:49.577Z,10.13
2022-11-07T21:51:54.056Z,11.30
2022-11-07T22:02:03.360Z,10.37
2022-11-07T22:12:09.276Z,11.30
2022-11-07T22:22:11.388Z,10.10
2022-11-07T22:32:15.633Z,10.43
2022-11-07T22:42:24.004Z,10.50
2022-11-07T22:52:28.424Z,10.90
2022-11-07T23:02:33.716Z,10.90
2022-11-07T23:12:41.063Z,11.13
2022-11-07T23:22:47.162Z,10.37
2022-11-07T23:32:53.106Z,10.63
2022-11-07T23:42:57.410Z,9.03
2022-11-07T23:53:22.517Z,9.00
